sensor_id;sensor_type;location;lat;lon;timestamp;pressure;altitude;pressure_sealevel;temperature;humidity
64841;BME280;51307;52.162;7.560;2023-03-22T00:00:27;100477.69;;;11.02;60.23
64841;BME280;51307;52.162;7.560;2023-03-22T00:02:56;100489.56;;;11.00;60.27
64841;BME280;51307;52.162;7.560;2023-03-22T00:05:21;100476.97;;;11.08;60.09
64841;BME280;51307;52.162;7.560;2023-03-22T00:07:47;100479.34;;;11.12;59.92
64841;BME280;51307;52.162;7.560;2023-03-22T00:10:15;100484.03;;;11.01;60.01
64841;BME280;51307;52.162;7.560;2023-03-22T00:12:41;100469.66;;;11.02;60.24
64841;BME280;51307;52.162;7.560;2023-03-22T00:15:07;100484.53;;;10.88;60.52
64841;BME280;51307;52.162;7.560;2023-03-22T00:17:33;100473.81;;;11.05;60.13
64841;BME280;51307;52.162;7.560;2023-03-22T00:20:02;100484.22;;;10.91;60.26
64841;BME280;51307;52.162;7.560;2023-03-22T00:22:33;100475.31;;;10.99;60.06
64841;BME280;51307;52.162;7.560;2023-03-22T00:24:59;100472.84;;;10.89;60.25
64841;BME280;51307;52.162;7.560;2023-03-22T00:27:24;100471.00;;;10.98;59.94
64841;BME280;51307;52.162;7.560;2023-03-22T00:29:51;100475.03;;;10.94;59.87
64841;BME280;51307;52.162;7.560;2023-03-22T00:32:16;100469.13;;;10.99;59.76
64841;BME280;51307;52.162;7.560;2023-03-22T00:34:42;100457.63;;;10.82;60.23
64841;BME280;51307;52.162;7.560;2023-03-22T00:37:07;100460.31;;;10.90;59.91
64841;BME280;51307;52.162;7.560;2023-03-22T00:39:33;100450.94;;;10.94;59.93
64841;BME280;51307;52.162;7.560;2023-03-22T00:41:58;100452.75;;;10.93;59.71
64841;BME280;51307;52.162;7.560;2023-03-22T00:44:24;100455.25;;;10.95;59.78
64841;BME280;51307;52.162;7.560;2023-03-22T00:46:49;100460.00;;;10.60;60.65
64841;BME280;51307;52.162;7.560;2023-03-22T00:49:15;100454.28;;;10.80;60.03
64841;BME280;51307;52.162;7.560;2023-03-22T00:51:41;100449.44;;;10.91;59.81
64841;BME280;51307;52.162;7.560;2023-03-22T00:54:06;100446.41;;;10.94;59.55
64841;BME280;51307;52.162;7.560;2023-03-22T00:56:32;100447.25;;;10.87;59.69
64841;BME280;51307;52.162;7.560;2023-03-22T00:58:58;100444.25;;;10.73;59.54
64841;BME280;51307;52.162;7.560;2023-03-22T01:01:24;100438.41;;;10.62;60.42
64841;BME280;51307;52.162;7.560;2023-03-22T01:03:50;100438.06;;;10.81;59.71
64841;BME280;51307;52.162;7.560;2023-03-22T01:06:15;100435.22;;;10.83;59.59
64841;BME280;51307;52.162;7.560;2023-03-22T01:08:41;100427.53;;;10.80;59.72
64841;BME280;51307;52.162;7.560;2023-03-22T01:11:08;100435.91;;;10.60;60.13
64841;BME280;51307;52.162;7.560;2023-03-22T01:13:35;100432.25;;;10.61;59.96
64841;BME280;51307;52.162;7.560;2023-03-22T01:16:08;100432.22;;;10.12;61.51
64841;BME280;51307;52.162;7.560;2023-03-22T01:18:34;100427.88;;;10.68;60.02
64841;BME280;51307;52.162;7.560;2023-03-22T01:20:59;100431.59;;;10.51;60.13
64841;BME280;51307;52.162;7.560;2023-03-22T01:23:25;100425.53;;;10.73;59.41
64841;BME280;51307;52.162;7.560;2023-03-22T01:25:50;100423.38;;;10.69;59.76
64841;BME280;51307;52.162;7.560;2023-03-22T01:28:16;100426.72;;;10.71;59.46
64841;BME280;51307;52.162;7.560;2023-03-22T01:30:41;100420.53;;;10.70;59.39
64841;BME280;51307;52.162;7.560;2023-03-22T01:33:07;100419.56;;;10.63;59.62
64841;BME280;51307;52.162;7.560;2023-03-22T01:35:34;100421.91;;;10.58;59.74
64841;BME280;51307;52.162;7.560;2023-03-22T01:38:00;100409.81;;;10.70;59.13
64841;BME280;51307;52.162;7.560;2023-03-22T01:40:26;100410.16;;;10.75;59.17
64841;BME280;51307;52.162;7.560;2023-03-22T01:42:53;100404.47;;;10.70;59.13
64841;BME280;51307;52.162;7.560;2023-03-22T01:48:05;100399.78;;;10.64;59.34
64841;BME280;51307;52.162;7.560;2023-03-22T01:50:34;100398.13;;;10.71;59.03
64841;BME280;51307;52.162;7.560;2023-03-22T01:53:02;100390.41;;;10.68;59.36
64841;BME280;51307;52.162;7.560;2023-03-22T01:55:31;100391.91;;;10.71;59.31
64841;BME280;51307;52.162;7.560;2023-03-22T01:57:59;100391.78;;;10.64;59.51
64841;BME280;51307;52.162;7.560;2023-03-22T02:00:25;100386.94;;;10.59;59.75
64841;BME280;51307;52.162;7.560;2023-03-22T02:02:52;100383.09;;;10.62;59.64
64841;BME280;51307;52.162;7.560;2023-03-22T02:05:18;100378.75;;;10.61;59.64
64841;BME280;51307;52.162;7.560;2023-03-22T02:07:48;100378.91;;;10.59;59.57
64841;BME280;51307;52.162;7.560;2023-03-22T02:10:18;100377.56;;;10.64;59.75
64841;BME280;51307;52.162;7.560;2023-03-22T02:27:09;100363.00;;;10.74;59.48
64841;BME280;51307;52.162;7.560;2023-03-22T02:32:57;100351.94;;;10.77;59.29
64841;BME280;51307;52.162;7.560;2023-03-22T02:44:03;100348.63;;;10.67;59.32
64841;BME280;51307;52.162;7.560;2023-03-22T02:47:12;100339.13;;;10.65;59.32
64841;BME280;51307;52.162;7.560;2023-03-22T02:49:58;100333.59;;;10.66;59.68
64841;BME280;51307;52.162;7.560;2023-03-22T02:53:04;100331.56;;;10.68;59.41
64841;BME280;51307;52.162;7.560;2023-03-22T02:55:55;100335.41;;;10.74;59.31
64841;BME280;51307;52.162;7.560;2023-03-22T02:58:39;100330.06;;;10.74;59.43
64841;BME280;51307;52.162;7.560;2023-03-22T03:01:20;100329.03;;;10.75;59.44
64841;BME280;51307;52.162;7.560;2023-03-22T03:03:49;100325.03;;;10.71;59.44
64841;BME280;51307;52.162;7.560;2023-03-22T03:06:21;100314.13;;;10.81;59.21
64841;BME280;51307;52.162;7.560;2023-03-22T03:08:50;100313.69;;;10.69;59.59
64841;BME280;51307;52.162;7.560;2023-03-22T03:11:18;100319.03;;;10.69;59.61
64841;BME280;51307;52.162;7.560;2023-03-22T03:13:48;100311.81;;;10.69;59.53
64841;BME280;51307;52.162;7.560;2023-03-22T03:16:19;100312.69;;;10.70;59.67
64841;BME280;51307;52.162;7.560;2023-03-22T03:18:59;100307.47;;;10.68;59.85
64841;BME280;51307;52.162;7.560;2023-03-22T03:21:43;100306.50;;;10.61;60.05
64841;BME280;51307;52.162;7.560;2023-03-22T03:27:16;100306.47;;;10.69;59.82
64841;BME280;51307;52.162;7.560;2023-03-22T03:30:01;100303.16;;;10.67;59.90
64841;BME280;51307;52.162;7.560;2023-03-22T03:32:37;100303.47;;;10.72;59.60
64841;BME280;51307;52.162;7.560;2023-03-22T03:35:12;100304.53;;;10.55;60.06
64841;BME280;51307;52.162;7.560;2023-03-22T03:40:31;100301.13;;;10.69;60.01
64841;BME280;51307;52.162;7.560;2023-03-22T03:43:02;100290.06;;;10.81;59.54
64841;BME280;51307;52.162;7.560;2023-03-22T03:45:29;100295.22;;;10.82;59.77
64841;BME280;51307;52.162;7.560;2023-03-22T03:47:59;100296.09;;;10.74;59.81
64841;BME280;51307;52.162;7.560;2023-03-22T03:50:26;100297.03;;;10.90;59.44
64841;BME280;51307;52.162;7.560;2023-03-22T03:52:53;100292.38;;;10.84;59.75
64841;BME280;51307;52.162;7.560;2023-03-22T03:55:20;100293.56;;;10.81;59.90
64841;BME280;51307;52.162;7.560;2023-03-22T03:57:45;100297.59;;;10.77;59.90
64841;BME280;51307;52.162;7.560;2023-03-22T04:00:12;100295.22;;;10.82;59.67
64841;BME280;51307;52.162;7.560;2023-03-22T04:02:42;100287.38;;;10.81;59.69
64841;BME280;51307;52.162;7.560;2023-03-22T04:05:09;100284.03;;;10.79;59.78
64841;BME280;51307;52.162;7.560;2023-03-22T04:07:35;100282.84;;;10.81;59.71
64841;BME280;51307;52.162;7.560;2023-03-22T04:10:00;100283.22;;;10.78;59.81
64841;BME280;51307;52.162;7.560;2023-03-22T04:12:26;100282.34;;;10.77;59.72
64841;BME280;51307;52.162;7.560;2023-03-22T04:14:51;100284.56;;;10.74;59.88
64841;BME280;51307;52.162;7.560;2023-03-22T04:17:17;100280.03;;;10.74;59.84
64841;BME280;51307;52.162;7.560;2023-03-22T04:19:42;100272.69;;;10.76;59.92
64841;BME280;51307;52.162;7.560;2023-03-22T04:22:10;100273.22;;;10.64;60.18
64841;BME280;51307;52.162;7.560;2023-03-22T04:24:42;100274.03;;;10.72;60.01
64841;BME280;51307;52.162;7.560;2023-03-22T04:27:08;100268.56;;;10.66;60.18
64841;BME280;51307;52.162;7.560;2023-03-22T04:29:34;100268.00;;;10.70;60.01
64841;BME280;51307;52.162;7.560;2023-03-22T04:32:02;100269.59;;;10.56;60.25
64841;BME280;51307;52.162;7.560;2023-03-22T04:34:28;100255.03;;;10.59;60.21
64841;BME280;51307;52.162;7.560;2023-03-22T04:36:53;100261.84;;;10.62;60.08
64841;BME280;51307;52.162;7.560;2023-03-22T04:39:19;100258.94;;;10.48;60.68
64841;BME280;51307;52.162;7.560;2023-03-22T04:41:45;100255.00;;;10.67;60.09
64841;BME280;51307;52.162;7.560;2023-03-22T04:44:11;100260.03;;;10.62;60.27
64841;BME280;51307;52.162;7.560;2023-03-22T04:46:36;100265.88;;;10.57;60.26
64841;BME280;51307;52.162;7.560;2023-03-22T04:49:03;100258.88;;;10.56;60.35
64841;BME280;51307;52.162;7.560;2023-03-22T04:51:29;100261.41;;;10.50;60.51
64841;BME280;51307;52.162;7.560;2023-03-22T04:53:57;100262.38;;;10.57;60.31
64841;BME280;51307;52.162;7.560;2023-03-22T04:56:24;100249.53;;;10.52;60.29
64841;BME280;51307;52.162;7.560;2023-03-22T04:58:49;100248.66;;;10.60;60.38
64841;BME280;51307;52.162;7.560;2023-03-22T05:01:17;100251.03;;;10.55;60.36
64841;BME280;51307;52.162;7.560;2023-03-22T05:03:43;100254.03;;;10.52;60.30
64841;BME280;51307;52.162;7.560;2023-03-22T05:06:10;100254.34;;;10.57;60.23
64841;BME280;51307;52.162;7.560;2023-03-22T05:08:35;100253.72;;;10.47;60.51
64841;BME280;51307;52.162;7.560;2023-03-22T05:11:08;100251.72;;;10.49;60.42
64841;BME280;51307;52.162;7.560;2023-03-22T05:13:34;100248.88;;;10.50;60.24
64841;BME280;51307;52.162;7.560;2023-03-22T05:16:02;100245.19;;;10.51;60.17
64841;BME280;51307;52.162;7.560;2023-03-22T05:18:28;100241.66;;;10.51;60.43
64841;BME280;51307;52.162;7.560;2023-03-22T05:20:55;100240.84;;;10.42;60.42
64841;BME280;51307;52.162;7.560;2023-03-22T05:23:22;100237.34;;;10.50;60.23
64841;BME280;51307;52.162;7.560;2023-03-22T05:25:49;100239.00;;;10.51;60.11
64841;BME280;51307;52.162;7.560;2023-03-22T05:28:17;100234.00;;;10.48;60.41
64841;BME280;51307;52.162;7.560;2023-03-22T05:30:44;100238.69;;;10.46;60.39
64841;BME280;51307;52.162;7.560;2023-03-22T05:33:10;100241.66;;;10.42;60.49
64841;BME280;51307;52.162;7.560;2023-03-22T05:35:39;100242.03;;;10.39;60.39
64841;BME280;51307;52.162;7.560;2023-03-22T05:38:06;100251.03;;;10.38;60.58
64841;BME280;51307;52.162;7.560;2023-03-22T05:40:32;100248.38;;;10.47;60.32
64841;BME280;51307;52.162;7.560;2023-03-22T05:42:58;100238.34;;;10.40;60.47
64841;BME280;51307;52.162;7.560;2023-03-22T05:45:24;100231.00;;;10.34;60.53
64841;BME280;51307;52.162;7.560;2023-03-22T05:47:50;100236.84;;;10.46;60.23
64841;BME280;51307;52.162;7.560;2023-03-22T05:50:18;100241.38;;;10.46;60.45
64841;BME280;51307;52.162;7.560;2023-03-22T05:52:45;100245.56;;;10.48;60.25
64841;BME280;51307;52.162;7.560;2023-03-22T05:55:12;100235.31;;;10.52;60.23
64841;BME280;51307;52.162;7.560;2023-03-22T05:57:39;100243.19;;;10.45;60.12
64841;BME280;51307;52.162;7.560;2023-03-22T06:00:06;100244.69;;;10.48;60.35
64841;BME280;51307;52.162;7.560;2023-03-22T06:02:45;100239.69;;;10.45;60.34
64841;BME280;51307;52.162;7.560;2023-03-22T06:05:13;100235.31;;;10.52;60.22
64841;BME280;51307;52.162;7.560;2023-03-22T06:07:40;100224.47;;;10.45;60.36
64841;BME280;51307;52.162;7.560;2023-03-22T06:10:08;100229.50;;;10.48;60.40
64841;BME280;51307;52.162;7.560;2023-03-22T06:12:35;100228.66;;;10.48;60.33
64841;BME280;51307;52.162;7.560;2023-03-22T06:15:00;100219.44;;;10.42;60.42
64841;BME280;51307;52.162;7.560;2023-03-22T06:17:26;100227.66;;;10.49;60.22
64841;BME280;51307;52.162;7.560;2023-03-22T06:19:52;100217.41;;;10.44;60.54
64841;BME280;51307;52.162;7.560;2023-03-22T06:22:20;100220.13;;;10.52;60.39
64841;BME280;51307;52.162;7.560;2023-03-22T06:24:45;100210.56;;;10.58;59.98
64841;BME280;51307;52.162;7.560;2023-03-22T06:27:11;100222.09;;;10.58;59.94
64841;BME280;51307;52.162;7.560;2023-03-22T06:29:37;100217.28;;;10.54;60.21
64841;BME280;51307;52.162;7.560;2023-03-22T06:32:02;100220.97;;;10.45;60.47
64841;BME280;51307;52.162;7.560;2023-03-22T06:34:28;100210.78;;;10.48;60.44
64841;BME280;51307;52.162;7.560;2023-03-22T06:36:54;100209.28;;;10.46;60.45
64841;BME280;51307;52.162;7.560;2023-03-22T06:39:20;100214.41;;;10.55;60.36
64841;BME280;51307;52.162;7.560;2023-03-22T06:41:46;100211.41;;;10.50;60.42
64841;BME280;51307;52.162;7.560;2023-03-22T06:44:12;100206.91;;;10.51;60.43
64841;BME280;51307;52.162;7.560;2023-03-22T06:46:39;100209.94;;;10.48;60.31
64841;BME280;51307;52.162;7.560;2023-03-22T06:49:04;100207.06;;;10.49;60.35
64841;BME280;51307;52.162;7.560;2023-03-22T06:51:30;100213.28;;;10.50;60.27
64841;BME280;51307;52.162;7.560;2023-03-22T06:53:56;100201.25;;;10.46;60.53
64841;BME280;51307;52.162;7.560;2023-03-22T06:56:22;100198.19;;;10.57;60.26
64841;BME280;51307;52.162;7.560;2023-03-22T06:58:47;100195.50;;;10.57;60.10
64841;BME280;51307;52.162;7.560;2023-03-22T07:01:13;100197.69;;;10.53;60.10
64841;BME280;51307;52.162;7.560;2023-03-22T07:03:39;100199.50;;;10.61;60.00
64841;BME280;51307;52.162;7.560;2023-03-22T07:06:06;100196.69;;;10.54;60.06
64841;BME280;51307;52.162;7.560;2023-03-22T07:08:33;100198.59;;;10.46;60.09
64841;BME280;51307;52.162;7.560;2023-03-22T07:10:59;100200.38;;;10.53;60.00
64841;BME280;51307;52.162;7.560;2023-03-22T07:13:26;100200.16;;;10.63;59.80
64841;BME280;51307;52.162;7.560;2023-03-22T07:15:55;100202.53;;;10.58;59.66
64841;BME280;51307;52.162;7.560;2023-03-22T07:18:22;100187.78;;;10.62;59.75
64841;BME280;51307;52.162;7.560;2023-03-22T07:20:47;100189.25;;;10.73;59.53
64841;BME280;51307;52.162;7.560;2023-03-22T07:23:13;100191.59;;;10.68;59.49
64841;BME280;51307;52.162;7.560;2023-03-22T07:25:39;100187.56;;;10.72;59.12
64841;BME280;51307;52.162;7.560;2023-03-22T07:28:05;100197.00;;;10.59;59.52
64841;BME280;51307;52.162;7.560;2023-03-22T07:30:32;100200.81;;;10.65;59.57
64841;BME280;51307;52.162;7.560;2023-03-22T07:33:00;100200.25;;;10.78;59.06
64841;BME280;51307;52.162;7.560;2023-03-22T07:35:26;100203.50;;;10.88;58.99
64841;BME280;51307;52.162;7.560;2023-03-22T07:37:51;100200.81;;;10.97;58.79
64841;BME280;51307;52.162;7.560;2023-03-22T07:40:18;100205.16;;;10.66;59.39
64841;BME280;51307;52.162;7.560;2023-03-22T07:42:43;100193.59;;;10.97;58.41
64841;BME280;51307;52.162;7.560;2023-03-22T07:45:11;100193.72;;;11.04;58.50
64841;BME280;51307;52.162;7.560;2023-03-22T07:47:37;100188.88;;;11.07;58.06
64841;BME280;51307;52.162;7.560;2023-03-22T07:50:02;100186.19;;;11.07;57.80
64841;BME280;51307;52.162;7.560;2023-03-22T07:52:28;100195.09;;;11.00;57.27
64841;BME280;51307;52.162;7.560;2023-03-22T07:54:54;100196.75;;;11.24;57.10
64841;BME280;51307;52.162;7.560;2023-03-22T07:57:19;100185.09;;;11.17;57.38
64841;BME280;51307;52.162;7.560;2023-03-22T07:59:45;100188.44;;;11.19;56.96
64841;BME280;51307;52.162;7.560;2023-03-22T08:02:10;100187.34;;;11.28;56.72
64841;BME280;51307;52.162;7.560;2023-03-22T08:04:36;100178.31;;;11.29;56.69
64841;BME280;51307;52.162;7.560;2023-03-22T08:07:01;100181.28;;;11.11;56.99
64841;BME280;51307;52.162;7.560;2023-03-22T08:09:27;100182.38;;;11.25;56.78
64841;BME280;51307;52.162;7.560;2023-03-22T08:11:53;100201.47;;;11.45;56.30
64841;BME280;51307;52.162;7.560;2023-03-22T08:14:19;100182.94;;;11.35;56.28
64841;BME280;51307;52.162;7.560;2023-03-22T08:16:44;100183.94;;;11.57;55.79
64841;BME280;51307;52.162;7.560;2023-03-22T08:19:10;100186.41;;;11.59;55.63
64841;BME280;51307;52.162;7.560;2023-03-22T08:21:36;100180.59;;;11.55;55.70
64841;BME280;51307;52.162;7.560;2023-03-22T08:24:02;100180.06;;;11.37;56.11
64841;BME280;51307;52.162;7.560;2023-03-22T08:26:27;100180.78;;;11.54;55.40
64841;BME280;51307;52.162;7.560;2023-03-22T08:28:53;100188.53;;;11.64;55.74
64841;BME280;51307;52.162;7.560;2023-03-22T08:31:19;100190.41;;;11.63;56.03
64841;BME280;51307;52.162;7.560;2023-03-22T08:33:45;100196.50;;;11.34;56.12
64841;BME280;51307;52.162;7.560;2023-03-22T08:36:14;100203.75;;;11.48;55.80
64841;BME280;51307;52.162;7.560;2023-03-22T08:38:40;100200.19;;;11.56;56.16
64841;BME280;51307;52.162;7.560;2023-03-22T08:41:11;100196.31;;;11.35;56.41
64841;BME280;51307;52.162;7.560;2023-03-22T08:43:37;100195.53;;;11.50;55.65
64841;BME280;51307;52.162;7.560;2023-03-22T08:46:03;100197.69;;;11.31;55.50
64841;BME280;51307;52.162;7.560;2023-03-22T08:48:28;100189.16;;;11.36;55.81
64841;BME280;51307;52.162;7.560;2023-03-22T08:50:56;100185.31;;;11.68;55.40
64841;BME280;51307;52.162;7.560;2023-03-22T08:53:21;100184.38;;;11.61;55.33
64841;BME280;51307;52.162;7.560;2023-03-22T08:55:47;100176.97;;;11.48;54.84
64841;BME280;51307;52.162;7.560;2023-03-22T08:58:14;100184.41;;;11.76;54.49
64841;BME280;51307;52.162;7.560;2023-03-22T09:00:46;100188.72;;;11.62;54.89
64841;BME280;51307;52.162;7.560;2023-03-22T09:03:12;100195.47;;;11.58;54.78
64841;BME280;51307;52.162;7.560;2023-03-22T09:05:38;100188.34;;;11.65;54.83
64841;BME280;51307;52.162;7.560;2023-03-22T09:08:03;100187.53;;;11.65;54.31
64841;BME280;51307;52.162;7.560;2023-03-22T09:10:31;100187.00;;;11.69;54.19
64841;BME280;51307;52.162;7.560;2023-03-22T09:12:57;100187.94;;;11.76;54.07
64841;BME280;51307;52.162;7.560;2023-03-22T09:15:22;100187.94;;;11.76;53.30
64841;BME280;51307;52.162;7.560;2023-03-22T09:17:48;100172.28;;;11.65;53.22
64841;BME280;51307;52.162;7.560;2023-03-22T09:20:14;100177.63;;;11.65;53.33
64841;BME280;51307;52.162;7.560;2023-03-22T09:22:39;100179.03;;;11.76;53.09
64841;BME280;51307;52.162;7.560;2023-03-22T09:25:05;100178.00;;;11.62;52.92
64841;BME280;51307;52.162;7.560;2023-03-22T09:27:31;100172.22;;;11.73;52.40
64841;BME280;51307;52.162;7.560;2023-03-22T09:29:57;100179.88;;;11.76;52.48
64841;BME280;51307;52.162;7.560;2023-03-22T09:32:22;100186.03;;;11.62;52.61
64841;BME280;51307;52.162;7.560;2023-03-22T09:34:48;100178.63;;;11.87;52.35
64841;BME280;51307;52.162;7.560;2023-03-22T09:37:13;100182.19;;;11.80;52.21
64841;BME280;51307;52.162;7.560;2023-03-22T09:39:40;100162.03;;;11.84;52.17
64841;BME280;51307;52.162;7.560;2023-03-22T09:45:04;100181.22;;;11.42;52.71
64841;BME280;51307;52.162;7.560;2023-03-22T09:47:38;100173.03;;;11.74;52.38
64841;BME280;51307;52.162;7.560;2023-03-22T09:50:12;100165.41;;;11.86;52.08
64841;BME280;51307;52.162;7.560;2023-03-22T09:52:40;100160.22;;;11.84;51.64
64841;BME280;51307;52.162;7.560;2023-03-22T09:55:31;100173.84;;;11.98;51.40
64841;BME280;51307;52.162;7.560;2023-03-22T10:00:51;100156.25;;;11.80;50.90
64841;BME280;51307;52.162;7.560;2023-03-22T10:03:48;100155.66;;;12.30;50.88
64841;BME280;51307;52.162;7.560;2023-03-22T10:06:22;100161.06;;;12.15;50.97
64841;BME280;51307;52.162;7.560;2023-03-22T10:12:00;100157.28;;;11.94;51.19
64841;BME280;51307;52.162;7.560;2023-03-22T10:14:34;100171.34;;;12.11;51.17
64841;BME280;51307;52.162;7.560;2023-03-22T10:17:08;100168.91;;;12.01;51.65
64841;BME280;51307;52.162;7.560;2023-03-22T10:22:15;100160.31;;;12.21;51.26
64841;BME280;51307;52.162;7.560;2023-03-22T10:24:45;100162.72;;;12.16;51.36
64841;BME280;51307;52.162;7.560;2023-03-22T10:27:16;100158.28;;;11.93;51.64
64841;BME280;51307;52.162;7.560;2023-03-22T10:29:57;100146.63;;;12.16;51.59
64841;BME280;51307;52.162;7.560;2023-03-22T10:32:30;100148.28;;;12.32;51.38
64841;BME280;51307;52.162;7.560;2023-03-22T10:34:57;100148.66;;;12.28;51.14
64841;BME280;51307;52.162;7.560;2023-03-22T10:37:32;100144.28;;;12.42;50.88
64841;BME280;51307;52.162;7.560;2023-03-22T10:40:02;100133.66;;;12.34;50.76
64841;BME280;51307;52.162;7.560;2023-03-22T10:42:35;100143.84;;;12.24;50.86
64841;BME280;51307;52.162;7.560;2023-03-22T10:45:07;100135.56;;;12.40;51.10
64841;BME280;51307;52.162;7.560;2023-03-22T10:50:17;100148.56;;;12.37;50.31
64841;BME280;51307;52.162;7.560;2023-03-22T10:52:49;100155.63;;;12.44;50.28
64841;BME280;51307;52.162;7.560;2023-03-22T10:55:16;100150.13;;;12.68;50.13
64841;BME280;51307;52.162;7.560;2023-03-22T10:57:55;100162.34;;;12.70;49.59
64841;BME280;51307;52.162;7.560;2023-03-22T11:00:24;100153.56;;;12.61;49.92
64841;BME280;51307;52.162;7.560;2023-03-22T11:02:58;100155.25;;;12.84;49.75
64841;BME280;51307;52.162;7.560;2023-03-22T11:05:26;100159.28;;;12.73;49.40
64841;BME280;51307;52.162;7.560;2023-03-22T11:07:56;100155.38;;;12.54;49.85
64841;BME280;51307;52.162;7.560;2023-03-22T11:10:24;100165.94;;;12.77;49.72
64841;BME280;51307;52.162;7.560;2023-03-22T11:13:11;100156.75;;;12.87;49.14
64841;BME280;51307;52.162;7.560;2023-03-22T11:15:40;100148.78;;;12.57;49.38
64841;BME280;51307;52.162;7.560;2023-03-22T11:18:11;100146.56;;;12.45;49.43
64841;BME280;51307;52.162;7.560;2023-03-22T11:20:40;100154.22;;;12.64;49.42
64841;BME280;51307;52.162;7.560;2023-03-22T11:23:11;100142.44;;;12.65;49.68
64841;BME280;51307;52.162;7.560;2023-03-22T11:25:44;100144.69;;;12.61;49.42
64841;BME280;51307;52.162;7.560;2023-03-22T11:33:22;100154.78;;;12.59;49.05
64841;BME280;51307;52.162;7.560;2023-03-22T11:36:03;100151.78;;;12.69;48.99
64841;BME280;51307;52.162;7.560;2023-03-22T11:38:39;100154.31;;;12.70;48.85
64841;BME280;51307;52.162;7.560;2023-03-22T11:41:28;100156.34;;;12.68;48.96
64841;BME280;51307;52.162;7.560;2023-03-22T11:43:57;100158.00;;;12.69;48.96
64841;BME280;51307;52.162;7.560;2023-03-22T11:46:24;100151.97;;;12.67;49.17
64841;BME280;51307;52.162;7.560;2023-03-22T11:48:56;100150.13;;;12.68;49.06
64841;BME280;51307;52.162;7.560;2023-03-22T11:51:30;100154.66;;;12.67;49.38
64841;BME280;51307;52.162;7.560;2023-03-22T11:56:29;100143.94;;;12.67;49.32
64841;BME280;51307;52.162;7.560;2023-03-22T12:01:37;100134.59;;;12.26;50.33
64841;BME280;51307;52.162;7.560;2023-03-22T12:04:12;100138.13;;;12.49;50.72
64841;BME280;51307;52.162;7.560;2023-03-22T12:06:40;100139.38;;;12.31;50.86
64841;BME280;51307;52.162;7.560;2023-03-22T12:11:46;100144.97;;;12.15;52.73
64841;BME280;51307;52.162;7.560;2023-03-22T12:14:29;100138.59;;;12.16;52.25
64841;BME280;51307;52.162;7.560;2023-03-22T12:17:05;100147.19;;;11.96;53.28
64841;BME280;51307;52.162;7.560;2023-03-22T12:19:59;100145.91;;;12.22;53.97
64841;BME280;51307;52.162;7.560;2023-03-22T12:22:36;100153.94;;;12.07;53.36
64841;BME280;51307;52.162;7.560;2023-03-22T12:25:11;100157.47;;;12.07;53.64
64841;BME280;51307;52.162;7.560;2023-03-22T12:27:43;100152.00;;;12.16;53.41
64841;BME280;51307;52.162;7.560;2023-03-22T12:30:20;100147.75;;;12.06;54.19
64841;BME280;51307;52.162;7.560;2023-03-22T12:35:41;100164.03;;;12.05;54.34
64841;BME280;51307;52.162;7.560;2023-03-22T12:40:49;100156.69;;;11.84;55.14
64841;BME280;51307;52.162;7.560;2023-03-22T12:43:30;100160.78;;;11.94;54.83
64841;BME280;51307;52.162;7.560;2023-03-22T12:46:02;100169.19;;;12.06;54.92
64841;BME280;51307;52.162;7.560;2023-03-22T12:48:48;100166.03;;;11.88;54.30
64841;BME280;51307;52.162;7.560;2023-03-22T12:51:15;100166.63;;;11.98;53.93
64841;BME280;51307;52.162;7.560;2023-03-22T12:53:44;100169.09;;;12.00;54.33
64841;BME280;51307;52.162;7.560;2023-03-22T12:56:15;100161.63;;;11.95;54.19
64841;BME280;51307;52.162;7.560;2023-03-22T12:58:45;100166.50;;;12.06;53.86
64841;BME280;51307;52.162;7.560;2023-03-22T13:01:35;100164.84;;;12.05;53.66
64841;BME280;51307;52.162;7.560;2023-03-22T13:04:30;100163.09;;;12.13;53.51
64841;BME280;51307;52.162;7.560;2023-03-22T13:07:08;100159.75;;;12.25;53.18
64841;BME280;51307;52.162;7.560;2023-03-22T13:09:35;100155.31;;;11.88;53.51
64841;BME280;51307;52.162;7.560;2023-03-22T13:27:58;100144.75;;;12.31;52.45
64841;BME280;51307;52.162;7.560;2023-03-22T13:30:47;100150.09;;;12.31;51.99
64841;BME280;51307;52.162;7.560;2023-03-22T13:35:49;100125.66;;;12.19;52.02
64841;BME280;51307;52.162;7.560;2023-03-22T13:38:20;100136.19;;;12.06;52.31
64841;BME280;51307;52.162;7.560;2023-03-22T13:48:42;100121.72;;;12.37;51.64
64841;BME280;51307;52.162;7.560;2023-03-22T13:54:07;100127.78;;;12.45;51.51
64841;BME280;51307;52.162;7.560;2023-03-22T14:07:54;100120.94;;;12.43;51.23
64841;BME280;51307;52.162;7.560;2023-03-22T14:10:37;100125.13;;;12.45;51.43
64841;BME280;51307;52.162;7.560;2023-03-22T14:13:30;100123.00;;;12.41;51.70
64841;BME280;51307;52.162;7.560;2023-03-22T14:16:21;100132.56;;;12.65;51.42
64841;BME280;51307;52.162;7.560;2023-03-22T14:18:52;100136.97;;;12.36;51.09
64841;BME280;51307;52.162;7.560;2023-03-22T14:21:26;100128.69;;;12.16;51.31
64841;BME280;51307;52.162;7.560;2023-03-22T14:23:57;100133.16;;;12.45;50.90
64841;BME280;51307;52.162;7.560;2023-03-22T14:26:33;100126.41;;;12.50;50.97
64841;BME280;51307;52.162;7.560;2023-03-22T14:29:07;100129.81;;;12.58;50.48
64841;BME280;51307;52.162;7.560;2023-03-22T14:31:34;100117.78;;;12.54;50.63
64841;BME280;51307;52.162;7.560;2023-03-22T14:34:03;100128.34;;;12.56;50.58
64841;BME280;51307;52.162;7.560;2023-03-22T14:36:35;100124.75;;;12.34;50.94
64841;BME280;51307;52.162;7.560;2023-03-22T14:39:13;100132.09;;;12.25;50.96
64841;BME280;51307;52.162;7.560;2023-03-22T14:42:04;100133.66;;;12.34;51.17
64841;BME280;51307;52.162;7.560;2023-03-22T14:44:37;100133.19;;;12.31;51.34
64841;BME280;51307;52.162;7.560;2023-03-22T14:47:14;100140.06;;;12.55;50.79
64841;BME280;51307;52.162;7.560;2023-03-22T14:49:43;100137.13;;;12.50;51.25